Time;durP1;ratioP1;P1;durP2;ratioP2;P2;SDS_P1;SDS_P2;PMS_P1;PMS_P2;Temp;Humidity;BMP_temperature;BMP_pressure;BME280_temperature;BME280_humidity;BME280_pressure;Samples;Min_cycle;Max_cycle;Signal;HPM_P1;HPM_P2
2023/05/27 00:01:25;;;;;;;6.38;2.83;;;;;;;32.62;26.35;100356.41;4858867;29;20049;-76
2023/05/27 00:03:55;;;;;;;4.57;2.88;;;;;;;32.48;25.38;100356.47;4859110;29;20225;-74
2023/05/27 00:06:24;;;;;;;6.68;2.80;;;;;;;32.38;28.13;100363.41;4868875;29;20057;-75
2023/05/27 00:08:53;;;;;;;4.25;2.70;;;;;;;32.23;26.33;100358.16;4854738;29;20049;-74
2023/05/27 00:11:22;;;;;;;4.50;2.97;;;;;;;32.18;26.16;100351.38;4849969;29;20128;-74
2023/05/27 00:13:51;;;;;;;4.88;3.30;;;;;;;32.03;26.86;100355.94;4858623;29;20063;-75
2023/05/27 00:16:19;;;;;;;6.40;3.05;;;;;;;31.92;26.99;100349.44;4859840;29;20547;-75
2023/05/27 00:18:49;;;;;;;6.80;2.80;;;;;;;31.93;28.02;100347.63;4853331;29;20172;-78
2023/05/27 00:21:19;;;;;;;4.43;3.13;;;;;;;32.00;28.13;100342.75;4849027;29;20152;-76
2023/05/27 00:23:48;;;;;;;5.55;3.20;;;;;;;31.97;27.42;100348.31;4855448;29;20060;-77
2023/05/27 00:26:17;;;;;;;3.65;2.85;;;;;;;32.10;27.33;100343.88;4853410;29;20651;-78
2023/05/27 00:28:46;;;;;;;3.75;2.72;;;;;;;32.19;27.03;100345.06;4860832;29;20053;-81
2023/05/27 00:31:14;;;;;;;3.13;2.53;;;;;;;32.24;27.51;100343.78;4853526;29;20106;-76
2023/05/27 00:33:44;;;;;;;4.07;2.63;;;;;;;32.26;27.42;100346.38;4857056;29;20042;-75
2023/05/27 00:36:12;;;;;;;3.42;2.70;;;;;;;32.27;26.66;100338.22;4855283;29;20102;-77
2023/05/27 00:38:43;;;;;;;6.45;2.95;;;;;;;32.27;26.69;100335.53;4862345;29;20121;-77
2023/05/27 00:41:13;;;;;;;4.97;2.88;;;;;;;32.23;26.08;100339.41;4855513;29;20038;-77
2023/05/27 00:43:41;;;;;;;5.63;3.25;;;;;;;32.15;26.46;100341.75;4852877;29;20081;-78
2023/05/27 00:46:10;;;;;;;4.38;2.58;;;;;;;31.99;27.14;100338.38;4854953;29;20154;-77
2023/05/27 00:48:39;;;;;;;4.50;2.50;;;;;;;32.06;26.26;100337.84;4857697;29;20057;-72
2023/05/27 00:51:08;;;;;;;4.70;2.72;;;;;;;32.04;26.48;100338.91;4852114;29;20049;-76
2023/05/27 00:53:41;;;;;;;6.03;2.45;;;;;;;32.06;27.63;100342.34;4854051;29;20049;-78
2023/05/27 00:56:12;;;;;;;3.65;2.53;;;;;;;32.02;27.33;100333.66;4854931;29;20585;-78
2023/05/27 00:58:41;;;;;;;3.65;2.60;;;;;;;32.03;26.45;100337.22;4841929;29;20122;-78
2023/05/27 01:01:10;;;;;;;5.43;2.53;;;;;;;32.01;26.90;100340.00;4831600;29;20507;-78
2023/05/27 01:03:41;;;;;;;3.60;2.30;;;;;;;32.00;27.33;100334.72;4845664;29;20053;-77
2023/05/27 01:06:18;;;;;;;6.03;2.60;;;;;;;31.98;28.08;100334.84;4841315;29;20058;-79
2023/05/27 01:08:59;;;;;;;5.97;2.65;;;;;;;32.02;29.51;100341.69;4834375;29;20146;-77
2023/05/27 01:11:39;;;;;;;3.90;2.60;;;;;;;32.03;28.08;100342.56;4842613;29;20137;-77
2023/05/27 01:14:12;;;;;;;4.72;2.58;;;;;;;32.01;25.44;100333.78;4848691;29;20584;-76
2023/05/27 01:16:43;;;;;;;5.10;2.63;;;;;;;32.00;25.45;100332.06;4837638;29;20050;-75
2023/05/27 01:19:16;;;;;;;3.47;2.53;;;;;;;31.97;26.47;100329.59;4841192;29;20042;-76
2023/05/27 01:21:51;;;;;;;3.78;2.50;;;;;;;31.94;26.42;100336.81;4839780;29;20042;-76
2023/05/27 01:24:22;;;;;;;4.22;2.60;;;;;;;31.85;26.12;100333.91;4841851;29;20064;-76
2023/05/27 01:26:50;;;;;;;4.53;2.28;;;;;;;31.69;26.63;100334.91;4835151;29;20077;-74
2023/05/27 01:29:19;;;;;;;5.18;2.30;;;;;;;31.51;27.16;100336.97;4842100;29;20046;-76
2023/05/27 01:31:55;;;;;;;3.75;2.60;;;;;;;31.32;27.16;100347.09;4836266;29;20584;-77
2023/05/27 01:34:30;;;;;;;5.55;2.67;;;;;;;31.21;27.33;100344.25;4839889;29;20091;-79
2023/05/27 01:37:04;;;;;;;4.50;2.88;;;;;;;31.15;27.21;100344.63;4842088;29;20080;-79
2023/05/27 01:39:35;;;;;;;3.38;2.55;;;;;;;31.15;27.10;100349.97;4844876;29;20061;-75
2023/05/27 01:42:05;;;;;;;6.23;2.77;;;;;;;31.15;25.57;100350.84;4834791;29;20500;-77
2023/05/27 01:44:34;;;;;;;5.53;2.70;;;;;;;31.15;26.17;100349.97;4839022;29;20052;-76
2023/05/27 01:47:03;;;;;;;4.05;2.65;;;;;;;31.13;26.68;100349.22;4842430;29;20061;-77
2023/05/27 01:49:32;;;;;;;6.55;4.63;;;;;;;31.07;25.93;100354.00;4835973;29;20054;-81
2023/05/27 01:52:01;;;;;;;14.88;11.50;;;;;;;31.05;27.16;100355.06;4840493;29;20061;-79
2023/05/27 01:54:29;;;;;;;15.27;9.80;;;;;;;30.98;26.55;100353.72;4837053;29;20058;-81
2023/05/27 01:56:59;;;;;;;6.65;4.40;;;;;;;30.86;25.92;100356.19;4841087;29;20069;-75
2023/05/27 01:59:28;;;;;;;5.65;2.60;;;;;;;30.72;25.85;100368.63;4857161;29;20939;-75
2023/05/27 02:01:57;;;;;;;4.55;2.50;;;;;;;30.64;25.14;100377.97;4854586;29;20054;-76
2023/05/27 02:04:25;;;;;;;7.07;2.70;;;;;;;30.55;25.75;100365.16;4851673;29;20042;-78
2023/05/27 02:06:54;;;;;;;4.93;2.60;;;;;;;30.39;26.62;100373.22;4855690;29;20045;-75
2023/05/27 02:09:22;;;;;;;5.30;2.75;;;;;;;30.27;26.80;100372.16;4853364;29;20049;-75
2023/05/27 02:11:51;;;;;;;4.05;2.65;;;;;;;30.15;27.21;100380.84;4855115;29;20057;-75
2023/05/27 02:14:21;;;;;;;3.40;2.53;;;;;;;30.02;26.40;100379.84;4856910;29;20091;-74
2023/05/27 02:16:50;;;;;;;4.82;2.60;;;;;;;29.94;27.04;100377.63;4858091;29;20049;-80
2023/05/27 02:19:20;;;;;;;3.10;2.45;;;;;;;29.85;26.98;100376.34;4858108;29;20061;-79
2023/05/27 02:21:48;;;;;;;5.15;2.78;;;;;;;29.76;26.98;100384.84;4856603;29;20061;-77
2023/05/27 02:24:17;;;;;;;4.00;2.50;;;;;;;29.67;27.61;100392.50;4859894;29;20079;-77
2023/05/27 02:26:45;;;;;;;5.10;2.42;;;;;;;29.62;26.84;100392.75;4855603;29;20070;-76
2023/05/27 02:29:14;;;;;;;5.55;2.70;;;;;;;29.59;28.38;100392.91;4853471;29;20105;-75
2023/05/27 02:31:44;;;;;;;4.45;2.63;;;;;;;29.56;28.57;100393.94;4859176;29;20053;-75
2023/05/27 02:34:13;;;;;;;5.40;2.70;;;;;;;29.51;27.42;100395.16;4856704;29;20061;-76
2023/05/27 02:36:42;;;;;;;3.90;2.67;;;;;;;29.41;26.82;100395.66;4856212;29;20524;-76
2023/05/27 02:39:11;;;;;;;7.03;2.90;;;;;;;29.24;27.29;100395.69;4857981;29;20559;-77
2023/05/27 02:41:40;;;;;;;3.22;2.42;;;;;;;29.10;26.20;100406.25;4854877;29;20148;-78
2023/05/27 02:44:16;;;;;;;4.15;2.40;;;;;;;28.92;26.81;100403.56;4854023;29;20464;-77
2023/05/27 02:46:46;;;;;;;6.18;2.70;;;;;;;28.79;27.34;100407.81;4857701;29;20053;-77
2023/05/27 02:49:14;;;;;;;4.45;2.67;;;;;;;28.68;27.70;100404.84;4862797;29;20054;-76
2023/05/27 02:51:45;;;;;;;4.18;2.60;;;;;;;28.63;27.14;100414.88;4858640;29;20112;-77
2023/05/27 02:54:14;;;;;;;4.57;2.30;;;;;;;28.52;28.19;100410.97;4851497;29;20053;-74
2023/05/27 02:56:43;;;;;;;3.33;2.25;;;;;;;28.43;28.26;100419.38;4848742;29;20153;-74
2023/05/27 02:59:11;;;;;;;5.22;2.58;;;;;;;28.34;28.83;100425.16;4855929;29;20512;-74
2023/05/27 03:01:40;;;;;;;3.92;2.42;;;;;;;28.30;29.40;100427.09;4856365;29;20054;-75
2023/05/27 03:04:11;;;;;;;3.67;2.85;;;;;;;28.24;28.67;100424.72;4849261;29;20505;-74
2023/05/27 03:06:40;;;;;;;3.88;2.80;;;;;;;28.10;28.29;100430.72;4854476;29;20524;-73
2023/05/27 03:09:09;;;;;;;4.60;2.40;;;;;;;28.01;28.95;100436.50;4851127;29;20053;-77
2023/05/27 03:11:37;;;;;;;5.68;2.60;;;;;;;27.89;29.06;100439.75;4856973;29;20050;-74
2023/05/27 03:14:06;;;;;;;5.40;2.63;;;;;;;27.78;30.18;100446.38;4854898;29;20053;-76
2023/05/27 03:16:35;;;;;;;3.63;2.53;;;;;;;27.71;29.82;100455.59;4860123;29;20645;-76
2023/05/27 03:19:04;;;;;;;4.60;2.58;;;;;;;27.62;29.59;100463.13;4851146;29;20050;-75
2023/05/27 03:21:35;;;;;;;3.95;2.40;;;;;;;27.46;30.81;100468.28;4853459;29;20075;-75
2023/05/27 03:24:03;;;;;;;3.10;2.35;;;;;;;27.34;33.44;100472.38;4852154;29;20049;-77
2023/05/27 03:26:32;;;;;;;3.97;2.38;;;;;;;27.21;30.59;100479.16;4849237;29;20390;-75
2023/05/27 03:29:00;;;;;;;4.18;2.70;;;;;;;27.10;30.89;100483.13;4855070;29;20049;-76
2023/05/27 03:31:29;;;;;;;3.25;2.42;;;;;;;27.04;33.11;100488.69;4849872;29;20058;-75
2023/05/27 03:33:57;;;;;;;4.28;2.63;;;;;;;26.93;31.43;100489.13;4847582;29;20171;-77
2023/05/27 03:36:26;;;;;;;5.80;2.50;;;;;;;26.81;32.17;100497.63;4850891;29;20077;-76
2023/05/27 03:38:57;;;;;;;7.43;2.65;;;;;;;26.72;31.71;100503.31;4853209;29;20105;-76
2023/05/27 03:41:26;;;;;;;4.38;2.45;;;;;;;26.63;31.95;100509.03;4849089;29;20114;-75
2023/05/27 03:43:55;;;;;;;5.85;2.65;;;;;;;26.46;30.96;100494.63;4855161;29;20061;-75
2023/05/27 03:46:24;;;;;;;4.28;2.60;;;;;;;26.44;32.32;100515.03;4852417;29;20061;-76
2023/05/27 03:48:53;;;;;;;4.47;2.53;;;;;;;26.40;31.67;100521.38;4851146;29;20049;-76
2023/05/27 03:51:23;;;;;;;3.53;2.65;;;;;;;26.36;31.63;100524.22;4856915;29;20685;-74
2023/05/27 03:53:51;;;;;;;7.55;2.92;;;;;;;26.31;31.68;100521.75;4853530;29;20081;-76
2023/05/27 03:56:21;;;;;;;4.82;2.67;;;;;;;26.27;31.70;100522.78;4852371;29;20061;-75
2023/05/27 03:58:52;;;;;;;5.97;2.88;;;;;;;26.22;32.24;100532.72;4835619;29;20061;-75
2023/05/27 04:01:21;;;;;;;3.95;2.63;;;;;;;26.16;32.89;100538.25;4833232;29;20053;-76
2023/05/27 04:03:50;;;;;;;3.95;2.47;;;;;;;26.09;31.70;100546.47;4834037;29;20073;-77
2023/05/27 04:06:18;;;;;;;5.60;2.55;;;;;;;26.04;32.36;100550.19;4835082;29;20058;-75
2023/05/27 04:08:47;;;;;;;5.25;2.65;;;;;;;25.98;32.13;100553.97;4833453;29;20516;-74
2023/05/27 04:11:16;;;;;;;4.20;2.60;;;;;;;25.95;35.08;100571.75;4839420;29;20053;-74
2023/05/27 04:13:46;;;;;;;8.52;2.70;;;;;;;25.88;37.20;100566.72;4833863;29;20057;-74
2023/05/27 04:16:15;;;;;;;6.13;2.53;;;;;;;25.82;35.47;100582.78;4835632;29;20057;-74
2023/05/27 04:18:48;;;;;;;4.00;2.90;;;;;;;25.75;35.25;100578.63;4835990;29;20061;-74
2023/05/27 04:21:17;;;;;;;4.40;2.50;;;;;;;25.67;33.98;100581.53;4835064;29;20057;-76
2023/05/27 04:23:46;;;;;;;5.13;2.60;;;;;;;25.62;33.66;100586.16;4832586;29;20057;-78
2023/05/27 04:26:14;;;;;;;4.60;2.80;;;;;;;25.59;34.69;100602.16;4831363;29;20497;-75
2023/05/27 04:28:45;;;;;;;4.55;2.42;;;;;;;25.58;36.59;100596.91;4833490;29;20057;-76
2023/05/27 04:31:15;;;;;;;5.30;2.63;;;;;;;25.50;35.86;100597.19;4831504;29;20049;-75
2023/05/27 04:33:44;;;;;;;6.65;2.70;;;;;;;25.45;34.71;100600.00;4833152;29;20116;-75
2023/05/27 04:36:16;;;;;;;3.33;2.50;;;;;;;25.40;34.82;100609.88;4834103;29;20058;-77
2023/05/27 04:38:46;;;;;;;4.43;2.60;;;;;;;25.34;35.93;100612.75;4834245;29;20102;-77
2023/05/27 04:41:15;;;;;;;3.70;2.78;;;;;;;25.23;34.68;100614.88;4850668;29;20066;-77
2023/05/27 04:43:45;;;;;;;3.58;2.60;;;;;;;25.12;32.56;100623.16;4850829;29;20053;-77
2023/05/27 04:46:15;;;;;;;5.57;2.60;;;;;;;25.02;32.11;100621.72;4852253;29;20063;-74
2023/05/27 04:48:44;;;;;;;3.75;2.45;;;;;;;24.96;35.90;100621.91;4851300;29;20054;-76
2023/05/27 04:51:15;;;;;;;4.03;2.10;;;;;;;24.91;36.10;100631.78;4852061;29;20053;-75
2023/05/27 04:53:44;;;;;;;4.20;2.33;;;;;;;24.86;35.59;100631.94;4855988;29;20054;-74
2023/05/27 04:56:14;;;;;;;4.28;2.50;;;;;;;24.78;34.83;100632.16;4852736;29;20053;-75
2023/05/27 04:58:48;;;;;;;4.35;2.60;;;;;;;24.68;36.75;100643.97;4850619;29;20141;-74
2023/05/27 05:01:21;;;;;;;4.75;2.20;;;;;;;24.54;34.00;100651.47;4849885;29;20057;-77
2023/05/27 05:04:10;;;;;;;5.85;2.47;;;;;;;24.39;33.88;100640.38;4851735;29;20065;-74
2023/05/27 05:06:40;;;;;;;7.68;2.35;;;;;;;24.31;33.35;100645.03;4850289;29;20057;-76
2023/05/27 05:09:09;;;;;;;3.92;2.50;;;;;;;24.26;38.32;100654.88;4846975;29;20053;-77
2023/05/27 05:11:38;;;;;;;4.60;2.25;;;;;;;24.20;36.49;100663.84;4852641;29;20161;-74
2023/05/27 05:14:08;;;;;;;5.03;2.45;;;;;;;24.14;36.25;100661.38;4857521;29;20057;-74
2023/05/27 05:16:36;;;;;;;4.47;2.72;;;;;;;24.10;36.00;100664.13;4853384;29;20671;-75
2023/05/27 05:19:05;;;;;;;3.88;2.17;;;;;;;24.02;36.22;100661.72;4855654;29;20568;-75
2023/05/27 05:21:33;;;;;;;3.42;2.00;;;;;;;23.93;35.45;100668.13;4853133;29;20073;-76
2023/05/27 05:24:03;;;;;;;7.00;2.03;;;;;;;23.86;35.23;100663.06;4850106;29;20065;-75
2023/05/27 05:26:32;;;;;;;3.90;2.00;;;;;;;23.78;35.87;100665.91;4857198;29;20060;-75
2023/05/27 05:29:00;;;;;;;4.15;1.90;;;;;;;23.71;35.25;100673.09;4858027;29;20097;-75
2023/05/27 05:31:30;;;;;;;3.78;2.00;;;;;;;23.66;35.10;100666.19;4856921;29;21038;-76
2023/05/27 05:33:59;;;;;;;2.20;1.50;;;;;;;23.61;33.81;100668.94;4852218;29;20453;-76
2023/05/27 05:36:36;;;;;;;3.30;1.80;;;;;;;23.55;33.02;100675.25;4855262;29;20636;-77
2023/05/27 05:39:05;;;;;;;3.13;1.65;;;;;;;23.48;33.41;100668.41;4850124;29;20060;-77
2023/05/27 05:41:34;;;;;;;1.70;1.33;;;;;;;23.44;32.62;100671.16;4858587;29;20146;-76
2023/05/27 05:44:02;;;;;;;3.35;1.60;;;;;;;23.37;32.77;100665.16;4853590;29;20045;-77
2023/05/27 05:46:32;;;;;;;4.45;1.48;;;;;;;23.31;32.89;100670.59;4853564;29;20063;-78
2023/05/27 05:49:01;;;;;;;3.75;1.65;;;;;;;23.26;33.60;100677.75;4852014;29;20057;-76
2023/05/27 05:51:31;;;;;;;2.65;1.60;;;;;;;23.17;33.31;100682.34;4854799;29;20057;-77
2023/05/27 05:54:00;;;;;;;2.72;1.40;;;;;;;23.09;33.52;100676.41;4854758;29;20050;-75
2023/05/27 05:56:29;;;;;;;2.33;1.50;;;;;;;23.01;33.74;100680.97;4855108;29;20466;-74
2023/05/27 05:58:57;;;;;;;3.17;1.20;;;;;;;22.92;33.77;100683.78;4854797;29;20057;-76
2023/05/27 06:01:26;;;;;;;2.65;1.27;;;;;;;22.83;34.83;100682.22;4855251;29;20057;-78
2023/05/27 06:03:57;;;;;;;2.38;1.20;;;;;;;22.73;34.78;100692.09;4854754;29;20084;-77
2023/05/27 06:06:26;;;;;;;1.92;1.08;;;;;;;22.64;34.38;100684.41;4854262;29;20080;-77
2023/05/27 06:08:55;;;;;;;3.03;1.35;;;;;;;22.59;35.22;100696.81;4857062;29;20109;-77
2023/05/27 06:11:23;;;;;;;3.20;1.17;;;;;;;22.48;34.99;100697.03;4850777;29;20058;-76
2023/05/27 06:13:52;;;;;;;2.03;0.98;;;;;;;22.36;36.04;100690.25;4849179;29;20500;-79
2023/05/27 06:16:20;;;;;;;2.85;1.02;;;;;;;22.24;35.96;100701.06;4853742;29;20053;-78
2023/05/27 06:18:49;;;;;;;2.08;0.80;;;;;;;22.08;35.85;100689.91;4855210;29;20087;-78
2023/05/27 06:21:19;;;;;;;7.78;1.38;;;;;;;21.99;35.58;100699.72;4853649;29;20515;-77
2023/05/27 06:23:48;;;;;;;1.73;0.98;;;;;;;21.87;36.25;100701.69;4860323;29;20045;-78
2023/05/27 06:26:17;;;;;;;3.22;1.23;;;;;;;21.79;36.65;100698.34;4852179;29;20056;-76
2023/05/27 06:28:45;;;;;;;1.70;0.80;;;;;;;21.74;36.53;100694.91;4851891;29;20633;-77
2023/05/27 06:31:14;;;;;;;3.45;1.10;;;;;;;21.70;36.48;100686.19;4855619;29;20053;-77
2023/05/27 06:33:44;;;;;;;2.15;0.80;;;;;;;21.65;35.97;100695.94;4856829;29;20061;-78
2023/05/27 06:36:12;;;;;;;1.33;0.90;;;;;;;21.61;35.92;100691.63;4858088;29;20102;-78
2023/05/27 06:38:42;;;;;;;2.10;1.27;;;;;;;21.63;35.78;100681.94;4859717;29;20076;-77
2023/05/27 06:41:11;;;;;;;2.58;1.17;;;;;;;21.65;36.04;100684.53;4856853;29;20057;-77
2023/05/27 06:43:39;;;;;;;3.15;0.85;;;;;;;21.62;36.29;100679.31;4854547;29;20070;-75
2023/05/27 06:46:08;;;;;;;2.08;1.20;;;;;;;21.61;36.66;100677.59;4854920;29;20061;-77
2023/05/27 06:48:37;;;;;;;1.30;0.77;;;;;;;21.57;36.90;100682.03;4850164;29;20068;-77
2023/05/27 06:51:08;;;;;;;2.75;1.20;;;;;;;21.54;37.88;100674.19;4858474;29;20667;-74
2023/05/27 06:53:36;;;;;;;1.95;0.98;;;;;;;21.49;37.78;100666.38;4852060;29;20169;-76
2023/05/27 06:56:07;;;;;;;2.83;1.10;;;;;;;21.47;38.35;100668.16;4852882;29;20046;-77
2023/05/27 06:58:36;;;;;;;3.33;1.20;;;;;;;21.44;38.55;100670.84;4853640;29;20591;-76
2023/05/27 07:01:04;;;;;;;4.47;1.70;;;;;;;21.30;43.24;100678.94;4856276;29;20057;-76
2023/05/27 07:03:33;;;;;;;3.08;2.00;;;;;;;21.04;44.84;100676.69;4848577;29;20084;-76
2023/05/27 07:06:01;;;;;;;3.47;2.10;;;;;;;20.87;44.96;100683.97;4850232;29;20263;-76
2023/05/27 07:08:30;;;;;;;3.13;2.05;;;;;;;20.78;45.27;100695.50;4856768;29;20061;-75
2023/05/27 07:10:59;;;;;;;4.97;2.30;;;;;;;20.68;45.69;100697.38;4853048;29;20057;-76
2023/05/27 07:13:30;;;;;;;3.92;2.00;;;;;;;20.57;46.21;100701.91;4855938;29;20053;-74
2023/05/27 07:15:58;;;;;;;5.13;1.70;;;;;;;20.38;46.35;100702.97;4851880;29;20053;-75
2023/05/27 07:18:27;;;;;;;4.78;1.77;;;;;;;20.31;46.38;100699.53;4856767;29;20065;-75
2023/05/27 07:20:56;;;;;;;3.40;1.90;;;;;;;20.18;47.21;100698.81;4854499;29;20045;-74
2023/05/27 07:23:25;;;;;;;3.45;1.73;;;;;;;20.02;47.23;100694.59;4851600;29;20049;-76
2023/05/27 07:25:53;;;;;;;3.00;1.65;;;;;;;19.95;48.07;100698.16;4855058;29;20058;-75
2023/05/27 07:28:22;;;;;;;3.10;1.50;;;;;;;19.90;47.90;100694.72;4851246;29;20571;-75
2023/05/27 07:30:52;;;;;;;3.35;1.63;;;;;;;19.84;48.31;100700.91;4854587;29;20167;-76
2023/05/27 07:33:21;;;;;;;4.78;1.48;;;;;;;19.78;47.31;100706.22;4847768;29;20054;-76
2023/05/27 07:35:49;;;;;;;4.25;1.40;;;;;;;19.74;46.76;100699.25;4853563;29;20042;-76
2023/05/27 07:38:20;;;;;;;2.22;0.95;;;;;;;19.66;44.96;100701.91;4851274;29;20058;-75
2023/05/27 07:40:49;;;;;;;2.78;1.00;;;;;;;19.64;47.94;100699.31;4857351;29;20664;-75
2023/05/27 07:43:17;;;;;;;2.58;1.05;;;;;;;19.58;47.83;100701.97;4848380;29;20488;-75
2023/05/27 07:45:46;;;;;;;1.42;0.90;;;;;;;19.54;45.60;100704.63;4857432;29;20068;-76
2023/05/27 07:48:16;;;;;;;2.40;0.70;;;;;;;19.46;43.70;100702.94;4852442;29;20057;-75
2023/05/27 07:50:45;;;;;;;1.20;0.60;;;;;;;19.45;43.78;100703.84;4851499;29;20085;-74
2023/05/27 07:53:13;;;;;;;1.85;0.68;;;;;;;19.45;44.85;100700.34;4853896;29;20050;-73
2023/05/27 07:55:42;;;;;;;1.27;0.80;;;;;;;19.43;44.44;100696.88;4848688;29;20054;-77
2023/05/27 07:58:11;;;;;;;2.53;0.93;;;;;;;19.39;49.34;100701.25;4844708;29;20064;-76
2023/05/27 08:00:43;;;;;;;1.00;0.90;;;;;;;19.32;48.73;100694.31;4834523;29;20123;-75
2023/05/27 08:03:12;;;;;;;1.25;0.70;;;;;;;19.27;45.18;100696.09;4833870;29;20090;-76
2023/05/27 08:05:42;;;;;;;1.17;0.75;;;;;;;19.23;44.57;100699.63;4835437;29;20523;-74
2023/05/27 08:08:11;;;;;;;0.68;0.60;;;;;;;19.21;44.17;100696.16;4838086;29;20064;-75
2023/05/27 08:10:39;;;;;;;1.88;0.68;;;;;;;19.20;44.94;100694.41;4837347;29;20062;-74
2023/05/27 08:13:10;;;;;;;1.33;0.65;;;;;;;19.19;44.56;100700.53;4835093;29;20062;-74
2023/05/27 08:15:39;;;;;;;0.47;0.45;;;;;;;19.16;44.65;100703.19;4834799;29;20050;-73
2023/05/27 08:18:07;;;;;;;2.28;0.60;;;;;;;19.11;45.27;100703.22;4837541;29;20077;-75
2023/05/27 08:20:36;;;;;;;1.35;0.70;;;;;;;19.09;46.16;100709.34;4834028;29;20573;-74
2023/05/27 08:23:06;;;;;;;3.40;1.48;;;;;;;19.07;48.62;100708.50;4839833;29;20053;-74
2023/05/27 08:25:35;;;;;;;2.50;1.42;;;;;;;19.01;49.69;100709.38;4839705;29;20054;-75
2023/05/27 08:28:03;;;;;;;3.58;1.50;;;;;;;18.96;50.74;100708.53;4830997;29;20066;-75
2023/05/27 08:30:32;;;;;;;3.95;1.90;;;;;;;18.81;53.28;100718.25;4837826;29;20050;-75
2023/05/27 08:33:01;;;;;;;5.53;2.05;;;;;;;18.58;55.99;100730.56;4840180;29;20058;-76
2023/05/27 08:35:29;;;;;;;3.38;2.33;;;;;;;18.24;56.92;100727.16;4837318;29;20053;-77
2023/05/27 08:38:00;;;;;;;3.25;1.42;;;;;;;17.94;58.59;100740.28;4834906;29;20053;-76
2023/05/27 08:40:31;;;;;;;1.65;1.25;;;;;;;17.80;59.25;100736.78;4836375;29;20669;-75
2023/05/27 08:42:59;;;;;;;2.50;1.40;;;;;;;17.68;59.67;100736.78;4834892;29;20617;-76
2023/05/27 08:45:28;;;;;;;3.72;1.63;;;;;;;17.54;60.58;100731.53;4836413;29;20054;-75
2023/05/27 08:47:59;;;;;;;5.45;2.03;;;;;;;17.46;61.38;100738.53;4839091;29;20057;-75
2023/05/27 08:50:28;;;;;;;2.85;1.40;;;;;;;17.33;63.49;100748.09;4841321;29;20053;-73
2023/05/27 08:52:56;;;;;;;2.83;1.77;;;;;;;17.21;63.47;100745.47;4840773;29;20042;-75
2023/05/27 08:55:26;;;;;;;2.70;1.73;;;;;;;17.10;64.54;100750.66;4838956;29;20051;-75
2023/05/27 08:57:58;;;;;;;2.88;1.63;;;;;;;17.02;64.83;100754.97;4859481;29;20113;-74
2023/05/27 09:00:27;;;;;;;4.80;1.85;;;;;;;16.92;64.71;100756.69;4860119;29;20049;-74
2023/05/27 09:02:59;;;;;;;1.88;1.27;;;;;;;16.81;65.56;100746.19;4862574;29;20076;-72
2023/05/27 09:05:28;;;;;;;5.82;1.65;;;;;;;16.83;65.98;100761.88;4854745;29;20138;-74
2023/05/27 09:07:56;;;;;;;4.45;1.40;;;;;;;16.74;65.95;100753.13;4857357;29;20057;-73
2023/05/27 09:10:40;;;;;;;3.80;1.45;;;;;;;16.72;65.69;100760.09;4859256;29;20140;-74
2023/05/27 09:13:10;;;;;;;4.53;1.25;;;;;;;16.70;66.14;100751.38;4858750;29;20120;-73
2023/05/27 09:15:39;;;;;;;2.20;1.40;;;;;;;16.68;66.04;100753.09;4857273;29;20492;-74
2023/05/27 09:18:08;;;;;;;1.92;1.20;;;;;;;16.68;65.97;100762.69;4857587;29;20132;-74
2023/05/27 09:20:37;;;;;;;5.13;1.65;;;;;;;16.65;66.12;100754.81;4859454;29;20057;-74
2023/05/27 09:23:08;;;;;;;2.45;1.48;;;;;;;16.59;66.66;100760.03;4857786;29;20092;-74
2023/05/27 09:25:37;;;;;;;1.80;1.25;;;;;;;16.53;67.97;100759.09;4866066;29;20049;-73
2023/05/27 09:28:09;;;;;;;2.67;1.45;;;;;;;16.45;68.38;100760.81;4860987;29;20057;-74
2023/05/27 09:30:38;;;;;;;4.07;1.30;;;;;;;16.40;67.80;100765.16;4856290;29;20067;-74
2023/05/27 09:33:08;;;;;;;2.45;1.75;;;;;;;16.37;69.01;100759.03;4850546;29;20436;-74
2023/05/27 09:35:40;;;;;;;3.00;1.67;;;;;;;16.28;68.85;100762.44;4855566;29;20136;-74
2023/05/27 09:38:15;;;;;;;;;;;;;;;16.29;69.25;100770.28;4858296;29;20057;-73
2023/05/27 09:40:46;;;;;;;2.88;1.52;;;;;;;16.28;69.34;100767.66;4855710;29;19928;-73
2023/05/27 09:43:17;;;;;;;2.15;1.50;;;;;;;16.27;69.25;100765.94;4857014;29;20665;-73
2023/05/27 09:45:52;;;;;;;2.30;1.60;;;;;;;16.24;69.21;100772.00;4855158;29;20547;-74
2023/05/27 09:48:21;;;;;;;1.85;1.15;;;;;;;16.22;69.33;100770.25;4856166;29;20125;-72
2023/05/27 09:50:52;;;;;;;3.35;1.35;;;;;;;16.19;69.13;100778.06;4854689;29;20053;-74
2023/05/27 09:53:27;;;;;;;4.60;1.52;;;;;;;16.14;69.33;100775.41;4854023;29;20122;-74
2023/05/27 09:55:57;;;;;;;2.40;1.30;;;;;;;16.10;69.94;100786.69;4856442;29;20068;-74
2023/05/27 09:58:27;;;;;;;2.28;1.58;;;;;;;16.05;70.82;100781.44;4857415;29;20502;-75
2023/05/27 10:00:59;;;;;;;4.32;1.67;;;;;;;15.96;71.88;100783.97;4856435;29;20053;-74
2023/05/27 10:03:32;;;;;;;5.23;1.37;;;;;;;15.90;71.91;100781.34;4854767;29;20102;-73
2023/05/27 10:06:02;;;;;;;1.98;1.52;;;;;;;15.84;72.60;100789.97;4862579;29;20063;-74
2023/05/27 10:08:31;;;;;;;2.95;1.30;;;;;;;15.81;72.29;100786.47;4857069;29;20053;-73
2023/05/27 10:10:59;;;;;;;3.13;1.48;;;;;;;15.80;73.24;100789.94;4857084;29;20042;-74
2023/05/27 10:13:30;;;;;;;5.18;1.48;;;;;;;15.79;72.74;100788.19;4858063;29;20057;-74
2023/05/27 10:16:01;;;;;;;5.30;1.50;;;;;;;15.75;72.45;100786.41;4856001;29;20057;-74
2023/05/27 10:18:30;;;;;;;3.63;1.52;;;;;;;15.73;73.52;100790.75;4854964;29;20065;-74
2023/05/27 10:21:00;;;;;;;1.63;1.20;;;;;;;15.70;73.55;100797.69;4857721;29;20048;-75
2023/05/27 10:23:30;;;;;;;3.10;1.48;;;;;;;15.69;72.88;100795.91;4858172;29;20094;-74
2023/05/27 10:26:03;;;;;;;3.17;1.77;;;;;;;15.66;72.96;100798.47;4857054;29;20041;-74
2023/05/27 10:28:35;;;;;;;3.20;1.60;;;;;;;15.62;73.15;100794.09;4852043;29;20488;-74
2023/05/27 10:31:10;;;;;;;6.68;1.63;;;;;;;15.61;73.22;100804.50;4857019;29;20090;-74
2023/05/27 10:33:39;;;;;;;6.07;1.77;;;;;;;15.57;73.39;100798.38;4854432;29;20053;-74
2023/05/27 10:36:12;;;;;;;2.05;1.40;;;;;;;15.47;74.76;100812.19;4853546;29;20106;-74
2023/05/27 10:38:42;;;;;;;3.35;1.65;;;;;;;15.36;76.39;100819.03;4860900;29;20057;-73
2023/05/27 10:41:11;;;;;;;2.65;2.20;;;;;;;15.28;76.34;100817.22;4853859;29;20164;-73
2023/05/27 10:43:44;;;;;;;2.40;1.40;;;;;;;15.27;76.10;100823.28;4857048;29;20050;-74
2023/05/27 10:46:14;;;;;;;2.33;1.48;;;;;;;15.25;77.75;100824.97;4858209;29;20046;-74
2023/05/27 10:48:43;;;;;;;3.33;1.48;;;;;;;15.17;78.08;100831.84;4852028;29;20059;-74
2023/05/27 10:51:12;;;;;;;4.90;1.60;;;;;;;15.11;78.36;100821.34;4859917;29;20045;-73
2023/05/27 10:53:40;;;;;;;2.40;1.55;;;;;;;15.10;78.43;100834.38;4851662;29;20053;-73
2023/05/27 10:56:10;;;;;;;2.38;1.10;;;;;;;15.12;78.18;100840.47;4854433;29;20045;-73
2023/05/27 10:58:39;;;;;;;1.85;1.27;;;;;;;15.13;78.66;100842.22;4853500;29;20113;-73
2023/05/27 11:01:12;;;;;;;2.40;1.45;;;;;;;15.07;80.52;100840.41;4856459;29;20058;-74
2023/05/27 11:03:46;;;;;;;4.05;1.65;;;;;;;15.01;79.99;100849.03;4852605;29;20136;-72
2023/05/27 11:06:16;;;;;;;2.05;1.38;;;;;;;15.00;79.17;100841.19;4853654;29;20711;-72
2023/05/27 11:08:45;;;;;;;2.10;1.40;;;;;;;14.98;79.73;100841.19;4854825;29;20064;-72
2023/05/27 11:11:14;;;;;;;3.15;1.55;;;;;;;14.99;80.20;100848.13;4853692;29;20579;-72
2023/05/27 11:13:47;;;;;;;2.78;1.27;;;;;;;14.99;80.54;100847.28;4852281;29;20144;-73
2023/05/27 11:16:17;;;;;;;6.85;1.60;;;;;;;14.98;80.20;100849.00;4858700;29;20062;-74
2023/05/27 11:18:47;;;;;;;2.28;1.67;;;;;;;14.98;79.33;100851.63;4855233;29;20112;-75
2023/05/27 11:21:17;;;;;;;2.28;1.38;;;;;;;14.94;81.50;100855.03;4858427;29;20109;-74
2023/05/27 11:23:49;;;;;;;1.85;1.17;;;;;;;14.88;80.99;100857.53;4855483;29;21222;-73
2023/05/27 11:26:18;;;;;;;3.42;1.20;;;;;;;14.90;80.54;100865.38;4858621;29;20076;-74
2023/05/27 11:28:51;;;;;;;3.05;1.60;;;;;;;14.91;81.10;100864.50;4858621;29;20592;-73
2023/05/27 11:31:25;;;;;;;2.33;1.70;;;;;;;14.91;81.36;100872.34;4852489;29;20061;-73
2023/05/27 11:33:56;;;;;;;2.78;1.27;;;;;;;14.92;80.55;100879.31;4853462;29;20141;-74
2023/05/27 11:36:28;;;;;;;1.92;1.17;;;;;;;14.94;80.36;100883.69;4856798;29;20556;-74
2023/05/27 11:38:58;;;;;;;;;;;;;;;14.93;80.54;100886.25;4855857;29;20069;-73